Time;durP1;ratioP1;P1;durP2;ratioP2;P2;SDS_P1;SDS_P2;PMS_P1;PMS_P2;Temp;Humidity;BMP_temperature;BMP_pressure;BME280_temperature;BME280_humidity;BME280_pressure;Samples;Min_cycle;Max_cycle;Signal;HPM_P1;HPM_P2
2023/07/28 00:01:36;;;;;;;44.63;25.42;;;18.60;99.90;;;;;;5082964;28;20081;-47
2023/07/28 00:04:06;;;;;;;38.22;23.70;;;18.40;99.90;;;;;;5073003;28;20093;-50
2023/07/28 00:06:33;;;;;;;40.28;23.83;;;18.50;99.90;;;;;;5072377;28;20125;-52
2023/07/28 00:08:58;;;;;;;40.55;23.58;;;18.30;99.90;;;;;;5072030;28;20058;-47
2023/07/28 00:11:24;;;;;;;37.25;23.35;;;18.40;99.90;;;;;;5071693;28;20036;-48
2023/07/28 00:13:50;;;;;;;40.03;22.95;;;18.60;99.90;;;;;;5090472;28;20092;-48
2023/07/28 00:16:15;;;;;;;41.25;24.27;;;18.20;99.90;;;;;;5092801;28;20557;-50
2023/07/28 00:18:41;;;;;;;46.30;24.65;;;18.60;99.90;;;;;;5071641;28;20419;-48
2023/07/28 00:21:07;;;;;;;39.78;18.38;;;18.20;99.90;;;;;;5072140;28;20407;-47
2023/07/28 00:23:32;;;;;;;31.92;21.45;;;18.40;99.90;;;;;;5090306;28;20072;-50
2023/07/28 00:25:58;;;;;;;35.47;19.85;;;18.30;99.90;;;;;;5092349;28;20529;-49
2023/07/28 00:28:24;;;;;;;31.98;21.13;;;18.20;99.90;;;;;;5092470;28;20047;-47
2023/07/28 00:30:50;;;;;;;35.92;21.75;;;18.50;99.90;;;;;;5092442;28;20056;-46
2023/07/28 00:33:17;;;;;;;42.05;22.92;;;18.10;99.90;;;;;;5090903;28;20051;-46
2023/07/28 00:35:42;;;;;;;44.80;18.45;;;18.10;99.90;;;;;;5092426;28;20042;-47
2023/07/28 00:38:09;;;;;;;35.40;22.38;;;18.20;99.90;;;;;;5092216;28;20391;-51
2023/07/28 00:40:35;;;;;;;40.20;22.90;;;18.10;99.90;;;;;;5070641;28;20032;-51
2023/07/28 00:43:01;;;;;;;41.80;22.88;;;18.10;99.90;;;;;;5086521;28;20441;-49
2023/07/28 00:45:28;;;;;;;36.35;22.67;;;18.10;99.90;;;;;;5071810;28;20044;-49
2023/07/28 00:47:57;;;;;;;44.00;25.00;;;18.70;99.90;;;;;;5071999;28;20502;-48
2023/07/28 00:50:23;;;;;;;41.70;23.92;;;18.20;99.90;;;;;;5071929;28;20429;-50
2023/07/28 00:52:49;;;;;;;41.67;24.00;;;18.60;99.90;;;;;;5071868;28;20532;-50
2023/07/28 00:55:15;;;;;;;39.72;23.48;;;18.10;99.90;;;;;;5075792;28;20048;-50
2023/07/28 00:57:41;;;;;;;41.33;23.00;;;18.60;99.90;;;;;;5091904;28;20494;-48
2023/07/28 01:00:07;;;;;;;40.50;22.35;;;18.10;99.90;;;;;;5091733;28;20048;-52
2023/07/28 01:02:33;;;;;;;39.80;23.17;;;18.50;99.90;;;;;;5091845;28;20039;-48
2023/07/28 01:04:59;;;;;;;45.25;19.90;;;18.10;99.90;;;;;;5091771;28;20040;-48
2023/07/28 01:07:37;;;;;;;42.15;22.98;;;18.50;99.90;;;;;;5091431;28;20054;-50
2023/07/28 01:10:10;;;;;;;35.95;22.67;;;18.70;99.90;;;;;;5091327;28;20036;-50
2023/07/28 01:12:35;;;;;;;36.75;21.98;;;18.60;99.90;;;;;;5091132;28;20114;-47
2023/07/28 01:15:01;;;;;;;41.33;23.35;;;18.60;99.90;;;;;;5091199;28;20056;-49
2023/07/28 01:17:27;;;;;;;33.03;22.17;;;18.70;99.90;;;;;;5091486;28;20028;-49
2023/07/28 01:19:53;;;;;;;37.53;22.92;;;18.20;99.90;;;;;;5090806;28;20085;-50
2023/07/28 01:22:47;;;;;;;38.60;22.90;;;18.50;99.90;;;;;;5088159;28;20032;-51
2023/07/28 01:25:45;;;;;;;38.90;23.83;;;18.10;99.90;;;;;;5076331;28;20504;-51
2023/07/28 01:28:13;;;;;;;36.00;22.17;;;18.10;99.90;;;;;;5067009;28;20052;-50
2023/07/28 01:30:38;;;;;;;37.75;22.80;;;18.10;99.90;;;;;;5081008;28;20101;-48
2023/07/28 01:33:08;;;;;;;40.22;22.65;;;18.50;99.90;;;;;;5091603;28;20036;-49
2023/07/28 01:35:36;;;;;;;40.72;23.05;;;18.70;99.90;;;;;;5091125;28;20054;-49
2023/07/28 01:38:01;;;;;;;38.00;22.65;;;18.10;99.90;;;;;;5089880;28;20051;-48
2023/07/28 01:40:27;;;;;;;39.72;22.00;;;18.60;99.90;;;;;;5083996;28;20040;-48
2023/07/28 01:42:53;;;;;;;33.83;22.13;;;18.50;99.90;;;;;;5070915;28;20392;-50
2023/07/28 01:45:18;;;;;;;43.83;23.70;;;18.40;99.90;;;;;;5088996;28;20491;-50
2023/07/28 01:47:44;;;;;;;30.75;20.50;;;18.50;99.90;;;;;;5091299;28;20040;-53
2023/07/28 01:50:09;;;;;;;38.60;22.33;;;18.30;99.90;;;;;;5090733;28;20040;-48
2023/07/28 01:52:35;;;;;;;34.50;21.35;;;18.70;99.90;;;;;;5090789;28;20433;-48
2023/07/28 01:55:01;;;;;;;34.25;20.85;;;18.60;99.90;;;;;;5090656;28;20037;-48
2023/07/28 01:57:27;;;;;;;39.35;20.55;;;18.20;99.90;;;;;;5089896;28;20113;-48
2023/07/28 01:59:56;;;;;;;31.67;19.42;;;18.60;99.90;;;;;;5089456;28;20043;-49
2023/07/28 02:02:21;;;;;;;37.42;20.60;;;18.10;99.90;;;;;;5088934;28;20083;-49
2023/07/28 02:04:47;;;;;;;38.30;20.38;;;18.10;99.90;;;;;;5091212;28;20075;-48
2023/07/28 02:07:13;;;;;;;35.92;20.63;;;18.30;99.90;;;;;;5089428;28;20032;-50
2023/07/28 02:09:38;;;;;;;34.05;19.00;;;18.40;99.90;;;;;;5090585;28;20040;-49
2023/07/28 02:12:04;;;;;;;34.00;19.98;;;18.30;99.90;;;;;;5090118;28;20111;-48
2023/07/28 02:14:30;;;;;;;34.28;19.75;;;18.20;99.90;;;;;;5090752;28;20068;-52
2023/07/28 02:16:56;;;;;;;38.60;20.42;;;18.30;99.90;;;;;;5090875;28;20082;-51
2023/07/28 02:19:21;;;;;;;41.83;21.70;;;18.20;99.90;;;;;;5090232;28;20070;-49
2023/07/28 02:21:47;;;;;;;33.58;19.25;;;18.40;99.90;;;;;;5090910;28;20079;-49
2023/07/28 02:24:12;;;;;;;33.28;19.90;;;18.20;99.90;;;;;;5091268;28;20044;-50
2023/07/28 02:26:38;;;;;;;37.67;20.58;;;18.40;99.90;;;;;;5081540;28;20064;-46
2023/07/28 02:29:04;;;;;;;40.83;21.02;;;18.60;99.90;;;;;;5087057;28;20082;-47
2023/07/28 02:31:29;;;;;;;36.92;20.05;;;18.10;99.90;;;;;;5089721;28;20043;-49
2023/07/28 02:33:55;;;;;;;38.28;19.80;;;18.60;99.90;;;;;;5090811;28;20028;-47
2023/07/28 02:36:21;;;;;;;35.63;21.13;;;18.70;99.90;;;;;;5090587;28;20119;-48
2023/07/28 02:38:46;;;;;;;36.80;20.25;;;18.60;99.90;;;;;;5072800;28;20040;-50
2023/07/28 02:41:12;;;;;;;41.42;21.08;;;18.20;99.90;;;;;;5090545;28;20063;-50
2023/07/28 02:43:38;;;;;;;36.42;20.90;;;18.50;99.90;;;;;;5090282;28;20047;-50
2023/07/28 02:46:05;;;;;;;32.78;19.65;;;18.50;99.90;;;;;;5090510;28;20543;-46
2023/07/28 02:48:31;;;;;;;36.65;20.30;;;18.60;99.90;;;;;;5090620;28;20040;-49
2023/07/28 02:50:56;;;;;;;31.95;19.63;;;18.70;99.90;;;;;;5090510;28;20047;-50
2023/07/28 02:53:22;;;;;;;37.88;16.70;;;18.50;99.90;;;;;;5090589;28;20032;-47
2023/07/28 02:55:48;;;;;;;35.15;15.88;;;18.30;99.90;;;;;;5090294;28;20130;-51
2023/07/28 02:58:14;;;;;;;35.85;18.73;;;18.60;99.90;;;;;;5090458;28;20065;-50
2023/07/28 03:00:41;;;;;;;36.40;20.20;;;18.70;99.90;;;;;;5090564;28;20060;-48
2023/07/28 03:03:10;;;;;;;37.15;20.38;;;18.20;99.90;;;;;;5077540;28;20045;-49
2023/07/28 03:05:36;;;;;;;34.40;19.67;;;18.20;99.90;;;;;;5070385;28;20045;-50
2023/07/28 03:08:02;;;;;;;35.22;20.05;;;18.50;99.90;;;;;;5088725;28;20043;-48
2023/07/28 03:10:28;;;;;;;36.97;19.30;;;18.20;99.90;;;;;;5089743;28;20040;-49
2023/07/28 03:12:53;;;;;;;32.97;18.92;;;18.80;99.90;;;;;;5090026;28;20475;-50
2023/07/28 03:15:21;;;;;;;37.22;19.92;;;18.20;99.90;;;;;;5092182;28;20692;-49
2023/07/28 03:17:51;;;;;;;33.65;19.33;;;18.20;99.90;;;;;;5091357;28;20119;-50
2023/07/28 03:20:16;;;;;;;42.45;21.38;;;18.30;99.90;;;;;;5072659;28;20043;-49
2023/07/28 03:22:42;;;;;;;32.35;19.25;;;18.70;99.90;;;;;;5073557;28;20480;-51
2023/07/28 03:25:09;;;;;;;38.30;19.67;;;18.50;99.90;;;;;;5072258;28;20391;-50
2023/07/28 03:27:34;;;;;;;36.20;19.92;;;18.80;99.90;;;;;;5090703;28;20044;-50
2023/07/28 03:30:01;;;;;;;38.45;20.25;;;18.80;99.90;;;;;;5071927;28;20044;-45
2023/07/28 03:32:26;;;;;;;35.92;20.92;;;18.30;99.90;;;;;;5073318;28;20036;-48
2023/07/28 03:34:52;;;;;;;34.85;20.67;;;18.40;99.90;;;;;;5073429;28;20357;-52
2023/07/28 03:37:19;;;;;;;38.22;20.60;;;18.60;99.90;;;;;;5079625;28;20086;-52
2023/07/28 03:39:44;;;;;;;38.33;21.20;;;18.70;99.90;;;;;;5073199;28;20040;-49
2023/07/28 03:42:10;;;;;;;41.10;22.23;;;18.10;99.90;;;;;;5071991;28;20040;-50
2023/07/28 03:44:37;;;;;;;40.53;21.55;;;18.80;99.90;;;;;;5071934;28;20045;-50
2023/07/28 03:47:03;;;;;;;42.75;22.58;;;18.70;99.90;;;;;;5091457;28;20491;-46
2023/07/28 03:49:29;;;;;;;45.70;23.90;;;18.70;99.90;;;;;;5091337;28;20032;-49
2023/07/28 03:51:55;;;;;;;39.95;22.60;;;18.80;99.90;;;;;;5082778;28;20365;-51
2023/07/28 03:54:21;;;;;;;36.60;18.02;;;18.20;99.90;;;;;;5072640;28;20053;-49
2023/07/28 03:56:46;;;;;;;43.40;23.15;;;18.20;99.90;;;;;;5070867;28;20178;-46
2023/07/28 03:59:12;;;;;;;39.83;22.88;;;18.20;99.90;;;;;;5086295;28;20039;-49
2023/07/28 04:01:38;;;;;;;42.72;24.10;;;18.20;99.90;;;;;;5093073;28;20043;-47
2023/07/28 04:04:04;;;;;;;44.85;24.13;;;18.30;99.90;;;;;;5092837;28;20035;-46
2023/07/28 04:06:43;;;;;;;39.08;23.13;;;18.10;99.90;;;;;;5072579;28;20051;-46
2023/07/28 04:09:09;;;;;;;42.10;24.23;;;18.20;99.90;;;;;;5072428;28;20067;-47
2023/07/28 04:11:35;;;;;;;40.15;23.35;;;18.70;99.90;;;;;;5072482;28;20479;-48
2023/07/28 04:14:02;;;;;;;42.25;20.35;;;18.10;99.90;;;;;;5072233;28;20082;-46
2023/07/28 04:16:27;;;;;;;38.85;22.80;;;18.70;99.90;;;;;;5072184;28;20044;-46
2023/07/28 04:18:53;;;;;;;41.00;22.92;;;18.20;99.90;;;;;;5072398;28;20115;-46
2023/07/28 04:21:19;;;;;;;42.92;24.08;;;18.50;99.90;;;;;;5072566;28;20101;-47
2023/07/28 04:23:44;;;;;;;44.22;24.77;;;18.30;99.90;;;;;;5070924;28;20036;-53
2023/07/28 04:26:10;;;;;;;43.55;23.35;;;18.40;99.90;;;;;;5071837;28;20063;-48
2023/07/28 04:28:36;;;;;;;41.13;23.02;;;18.30;99.90;;;;;;5072375;28;20044;-48
2023/07/28 04:31:02;;;;;;;40.83;24.58;;;18.50;99.90;;;;;;5072315;28;20033;-50
2023/07/28 04:33:27;;;;;;;38.72;22.52;;;18.40;99.90;;;;;;5072002;28;20411;-48
2023/07/28 04:35:53;;;;;;;34.50;21.80;;;18.20;99.90;;;;;;5071716;28;20036;-52
2023/07/28 04:38:18;;;;;;;41.70;22.48;;;18.40;99.90;;;;;;5072315;28;20060;-48
2023/07/28 04:40:44;;;;;;;39.45;21.60;;;18.70;99.90;;;;;;5072060;28;20036;-52
2023/07/28 04:43:10;;;;;;;33.35;20.45;;;18.30;99.90;;;;;;5091519;28;20035;-48
2023/07/28 04:45:36;;;;;;;42.15;23.33;;;18.90;99.90;;;;;;5090661;28;20043;-49
2023/07/28 04:48:02;;;;;;;39.35;22.00;;;18.90;99.90;;;;;;5092183;28;20471;-49
2023/07/28 04:50:28;;;;;;;40.40;22.58;;;18.90;99.90;;;;;;5087711;28;20119;-49
2023/07/28 04:52:54;;;;;;;38.67;21.90;;;18.60;99.90;;;;;;5071391;28;20072;-49
2023/07/28 04:55:20;;;;;;;35.17;20.90;;;18.90;99.90;;;;;;5071327;28;20384;-50
2023/07/28 04:57:46;;;;;;;37.80;21.55;;;18.40;99.90;;;;;;5071559;28;20047;-49
2023/07/28 05:00:12;;;;;;;34.63;21.75;;;18.90;99.90;;;;;;5071934;28;20446;-51
2023/07/28 05:02:38;;;;;;;33.75;20.27;;;18.70;99.90;;;;;;5071524;28;20044;-50
2023/07/28 05:05:04;;;;;;;39.47;21.35;;;18.90;99.90;;;;;;5071648;28;20074;-47
2023/07/28 05:07:30;;;;;;;36.33;20.90;;;18.80;99.90;;;;;;5089347;28;20062;-48
2023/07/28 05:09:56;;;;;;;37.60;19.70;;;18.50;99.90;;;;;;5090741;28;20090;-47
2023/07/28 05:12:21;;;;;;;36.63;17.30;;;18.90;99.90;;;;;;5064858;28;20513;-45
2023/07/28 05:14:47;;;;;;;32.60;19.45;;;18.50;99.90;;;;;;5068953;28;20119;-52
2023/07/28 05:17:13;;;;;;;33.00;19.55;;;18.50;99.90;;;;;;5074293;28;20048;-50
2023/07/28 05:19:38;;;;;;;36.28;19.63;;;18.90;99.90;;;;;;5068977;28;20498;-49
2023/07/28 05:22:06;;;;;;;33.88;19.45;;;18.90;99.90;;;;;;5069168;28;20123;-50
2023/07/28 05:24:32;;;;;;;33.28;20.13;;;18.40;99.90;;;;;;5068629;28;20048;-48
2023/07/28 05:26:58;;;;;;;36.90;19.73;;;18.70;99.90;;;;;;5075605;28;20056;-50
2023/07/28 05:29:24;;;;;;;34.83;18.98;;;18.80;99.90;;;;;;5069270;28;20045;-49
2023/07/28 05:31:50;;;;;;;41.42;20.70;;;18.50;99.90;;;;;;5069477;28;20043;-46
2023/07/28 05:34:16;;;;;;;37.70;20.73;;;18.30;99.90;;;;;;5070920;28;20105;-49
2023/07/28 05:36:42;;;;;;;37.17;20.00;;;18.90;99.90;;;;;;5068415;28;20119;-52
2023/07/28 05:39:08;;;;;;;44.53;22.27;;;18.90;99.90;;;;;;5071052;28;20040;-51
2023/07/28 05:41:34;;;;;;;40.13;21.58;;;18.40;99.90;;;;;;5068944;28;20056;-47
2023/07/28 05:43:59;;;;;;;37.03;21.70;;;18.70;99.90;;;;;;5069232;28;20043;-48
2023/07/28 05:46:25;;;;;;;35.22;22.30;;;18.70;99.90;;;;;;5067877;28;20044;-48
2023/07/28 05:48:51;;;;;;;36.90;22.08;;;18.50;99.90;;;;;;5068050;28;20048;-51
2023/07/28 05:51:16;;;;;;;41.15;22.83;;;18.60;99.90;;;;;;5067755;28;20041;-48
2023/07/28 05:53:42;;;;;;;41.75;22.83;;;18.80;99.90;;;;;;5069978;28;20032;-49
2023/07/28 05:56:08;;;;;;;38.83;21.98;;;19.30;99.90;;;;;;5067954;28;20052;-48
2023/07/28 05:58:33;;;;;;;33.95;21.90;;;18.90;99.90;;;;;;5068380;28;20060;-48
2023/07/28 06:00:59;;;;;;;31.92;16.33;;;19.30;99.90;;;;;;5066996;28;20078;-48
2023/07/28 06:03:26;;;;;;;34.97;19.75;;;18.70;99.90;;;;;;5056622;28;20044;-49
2023/07/28 06:05:52;;;;;;;33.75;19.35;;;18.70;99.90;;;;;;5056952;28;20518;-51
2023/07/28 06:08:18;;;;;;;30.88;18.13;;;19.30;99.90;;;;;;5050566;28;20044;-49
2023/07/28 06:10:43;;;;;;;33.25;15.57;;;19.40;99.90;;;;;;5055736;28;20403;-48
2023/07/28 06:13:09;;;;;;;25.50;16.25;;;18.80;99.90;;;;;;5054681;28;20478;-47
2023/07/28 06:15:39;;;;;;;26.67;15.88;;;19.40;99.90;;;;;;5059243;28;20079;-46
2023/07/28 06:18:04;;;;;;;25.15;14.73;;;19.00;99.90;;;;;;5056495;28;20487;-46
2023/07/28 06:20:30;;;;;;;24.73;14.95;;;19.40;99.90;;;;;;5059384;28;20075;-50
2023/07/28 06:22:56;;;;;;;28.23;16.15;;;19.20;99.90;;;;;;5057790;28;20364;-49
2023/07/28 06:25:22;;;;;;;25.17;16.98;;;19.10;99.90;;;;;;5059438;28;20052;-48
2023/07/28 06:27:48;;;;;;;32.72;17.45;;;19.10;99.90;;;;;;5055891;28;20132;-49
2023/07/28 06:30:14;;;;;;;26.60;17.42;;;19.60;99.90;;;;;;5054640;28;20083;-48
2023/07/28 06:32:39;;;;;;;32.88;18.20;;;19.20;99.90;;;;;;5056172;28;20410;-48
2023/07/28 06:35:07;;;;;;;30.02;18.38;;;19.20;99.90;;;;;;5060383;28;21088;-50
2023/07/28 06:37:33;;;;;;;33.05;19.35;;;19.20;99.90;;;;;;5060427;28;20044;-46
2023/07/28 06:39:59;;;;;;;29.45;18.38;;;19.30;99.90;;;;;;5052757;28;20043;-47
2023/07/28 06:42:26;;;;;;;27.35;17.85;;;19.70;99.90;;;;;;5053479;28;20049;-47
2023/07/28 06:44:52;;;;;;;27.20;16.88;;;19.70;99.90;;;;;;5055549;28;20072;-47
2023/07/28 06:47:18;;;;;;;28.40;17.27;;;19.80;99.90;;;;;;5057559;28;20071;-51
2023/07/28 06:49:44;;;;;;;21.77;14.30;;;19.70;99.90;;;;;;5060358;28;20051;-49
2023/07/28 06:52:10;;;;;;;23.40;14.80;;;19.50;99.90;;;;;;5062225;28;20041;-52
2023/07/28 06:54:36;;;;;;;21.20;13.57;;;19.70;99.90;;;;;;5062409;28;20057;-46
2023/07/28 06:57:02;;;;;;;19.42;12.60;;;19.70;99.90;;;;;;5061856;28;20472;-50
2023/07/28 06:59:28;;;;;;;26.25;14.80;;;19.80;99.90;;;;;;5060329;28;20071;-45
2023/07/28 07:01:54;;;;;;;22.23;13.23;;;19.90;99.90;;;;;;5061287;28;20407;-47
2023/07/28 07:04:19;;;;;;;22.38;13.70;;;19.80;99.90;;;;;;5061610;28;20040;-50
2023/07/28 07:06:45;;;;;;;19.10;12.10;;;19.60;99.90;;;;;;5061395;28;20028;-46
2023/07/28 07:09:14;;;;;;;20.73;13.52;;;20.00;99.90;;;;;;5059889;28;20178;-46
2023/07/28 07:11:40;;;;;;;19.58;13.48;;;20.00;99.90;;;;;;5094768;28;20466;-50
2023/07/28 07:14:07;;;;;;;20.70;13.90;;;19.70;99.90;;;;;;5063570;28;20086;-47
2023/07/28 07:16:33;;;;;;;20.92;12.75;;;19.80;99.90;;;;;;5062475;28;20036;-48
2023/07/28 07:18:59;;;;;;;19.95;12.48;;;19.80;99.90;;;;;;5061621;28;20037;-50
2023/07/28 07:21:27;;;;;;;16.77;11.20;;;20.20;99.90;;;;;;5061558;28;20418;-51
2023/07/28 07:23:52;;;;;;;16.67;11.30;;;19.80;99.90;;;;;;5062737;28;20051;-48
2023/07/28 07:26:18;;;;;;;18.90;12.27;;;20.00;99.90;;;;;;5062277;28;20128;-50
2023/07/28 07:28:44;;;;;;;17.17;11.82;;;19.90;99.90;;;;;;5060014;28;20029;-50
2023/07/28 07:31:16;;;;;;;15.90;9.65;;;20.00;99.90;;;;;;5057808;28;20372;-47
2023/07/28 07:33:42;;;;;;;14.43;9.30;;;20.30;99.90;;;;;;5059772;28;20048;-48
2023/07/28 07:36:15;;;;;;;13.27;8.60;;;20.30;99.90;;;;;;5063638;28;20491;-52
2023/07/28 07:38:41;;;;;;;11.95;8.07;;;20.30;99.90;;;;;;5063467;28;20184;-49
2023/07/28 07:41:08;;;;;;;12.82;8.25;;;20.10;99.90;;;;;;5063171;28;20040;-47
2023/07/28 07:43:34;;;;;;;14.07;8.48;;;20.20;99.90;;;;;;5062577;28;20419;-51
2023/07/28 07:46:00;;;;;;;15.73;8.93;;;20.20;99.90;;;;;;5063790;28;20029;-48
2023/07/28 07:48:26;;;;;;;15.25;8.60;;;20.40;99.90;;;;;;5063141;28;20025;-46
2023/07/28 07:50:52;;;;;;;13.57;9.13;;;20.30;99.90;;;;;;5060430;28;20041;-48
2023/07/28 07:53:17;;;;;;;13.38;8.93;;;20.40;99.90;;;;;;5063723;28;20070;-47
2023/07/28 07:55:43;;;;;;;14.95;10.00;;;20.20;99.90;;;;;;5062936;28;20576;-50
2023/07/28 07:58:09;;;;;;;15.18;9.93;;;20.30;99.90;;;;;;5062740;28;20060;-49
2023/07/28 08:00:38;;;;;;;16.00;8.95;;;20.60;99.90;;;;;;5045586;28;20127;-49
2023/07/28 08:03:04;;;;;;;17.10;9.77;;;20.40;99.90;;;;;;5058912;28;20452;-47
2023/07/28 08:05:30;;;;;;;16.50;10.23;;;20.70;99.90;;;;;;5063642;28;20115;-48
2023/07/28 08:07:56;;;;;;;17.33;11.00;;;20.50;99.90;;;;;;5064268;28;20138;-50
2023/07/28 08:10:22;;;;;;;15.77;10.27;;;20.90;99.90;;;;;;5063096;28;20071;-49
2023/07/28 08:12:49;;;;;;;19.65;10.82;;;20.80;99.90;;;;;;5060240;28;22754;-46
2023/07/28 08:15:15;;;;;;;17.08;11.32;;;20.80;99.90;;;;;;5062605;28;20040;-45
2023/07/28 08:17:40;;;;;;;17.92;11.35;;;20.80;99.90;;;;;;5063145;28;20404;-47
2023/07/28 08:20:09;;;;;;;17.08;11.82;;;20.70;99.90;;;;;;5063131;28;20032;-47
2023/07/28 08:22:35;;;;;;;19.40;12.02;;;20.60;99.90;;;;;;5063042;28;20059;-47
2023/07/28 08:25:00;;;;;;;19.88;11.23;;;20.70;99.90;;;;;;5064424;28;20032;-49
2023/07/28 08:27:26;;;;;;;18.10;11.25;;;20.90;99.90;;;;;;5070612;28;20040;-50
2023/07/28 08:29:52;;;;;;;22.20;11.88;;;20.80;99.90;;;;;;5069266;28;20121;-47
2023/07/28 08:32:17;;;;;;;16.50;10.77;;;20.80;99.90;;;;;;5089614;28;20395;-48
2023/07/28 08:34:43;;;;;;;14.27;9.80;;;20.90;99.90;;;;;;5088862;28;20379;-48
2023/07/28 08:37:09;;;;;;;16.35;8.85;;;21.00;99.90;;;;;;5070045;28;20098;-51
2023/07/28 08:39:35;;;;;;;16.63;8.73;;;21.00;99.90;;;;;;5072614;28;20490;-51
2023/07/28 08:42:02;;;;;;;13.05;8.45;;;21.00;99.90;;;;;;5072230;28;20045;-47
2023/07/28 08:44:33;;;;;;;14.93;9.43;;;21.20;99.90;;;;;;5072154;28;20047;-48
2023/07/28 08:47:00;;;;;;;15.13;10.05;;;21.20;99.90;;;;;;5071743;28;20475;-48
2023/07/28 08:49:26;;;;;;;16.00;9.90;;;21.30;99.90;;;;;;5072056;28;20036;-51
2023/07/28 08:51:58;;;;;;;15.73;9.98;;;21.10;99.90;;;;;;5089543;28;20054;-50
2023/07/28 08:54:23;;;;;;;16.15;9.75;;;21.30;99.90;;;;;;5091844;28;20499;-47
2023/07/28 08:56:50;;;;;;;18.15;9.07;;;21.20;99.90;;;;;;5091739;28;20073;-48
2023/07/28 08:59:23;;;;;;;12.10;8.15;;;21.20;99.90;;;;;;5090618;28;20040;-51
2023/07/28 09:01:59;;;;;;;15.15;8.43;;;21.40;99.90;;;;;;5090162;28;20074;-53
2023/07/28 09:04:25;;;;;;;14.95;9.50;;;21.60;99.90;;;;;;5092071;28;20047;-52
2023/07/28 09:06:50;;;;;;;15.15;10.15;;;21.80;99.90;;;;;;5077856;28;20413;-47
2023/07/28 09:09:20;;;;;;;14.05;9.57;;;21.80;99.90;;;;;;5091674;28;20040;-50
2023/07/28 09:11:52;;;;;;;16.92;9.43;;;21.50;99.90;;;;;;5077079;28;20048;-51
2023/07/28 09:14:19;;;;;;;14.93;9.57;;;21.40;99.90;;;;;;5070790;28;20040;-50
2023/07/28 09:16:46;;;;;;;18.77;9.52;;;21.30;99.90;;;;;;5071239;28;20301;-49
2023/07/28 09:19:13;;;;;;;16.38;8.88;;;21.70;99.90;;;;;;5089398;28;20077;-50
2023/07/28 09:21:41;;;;;;;11.32;7.95;;;21.80;99.90;;;;;;5089591;28;20063;-51
2023/07/28 09:24:08;;;;;;;16.15;8.25;;;22.00;99.90;;;;;;5069788;28;20044;-51
2023/07/28 09:26:45;;;;;;;12.18;7.15;;;22.10;99.90;;;;;;5071095;28;20122;-48
2023/07/28 09:29:18;;;;;;;14.68;8.23;;;22.30;99.90;;;;;;5071220;28;20051;-46
2023/07/28 09:31:48;;;;;;;15.85;9.88;;;22.20;99.90;;;;;;5071160;28;20031;-52
2023/07/28 09:34:25;;;;;;;18.58;10.00;;;22.10;99.90;;;;;;5068642;28;20067;-48
2023/07/28 09:36:59;;;;;;;17.17;11.05;;;22.10;99.90;;;;;;5064677;28;20079;-50
2023/07/28 09:39:25;;;;;;;18.15;11.40;;;22.10;99.90;;;;;;5066880;28;20036;-52
2023/07/28 09:41:51;;;;;;;16.30;9.98;;;22.00;99.90;;;;;;5066494;28;20040;-46
2023/07/28 09:44:17;;;;;;;17.30;10.60;;;22.10;99.90;;;;;;5067620;28;20036;-47
2023/07/28 09:46:56;;;;;;;16.35;10.98;;;22.20;99.90;;;;;;5065520;28;20055;-49
2023/07/28 09:49:28;;;;;;;19.65;9.75;;;22.20;99.90;;;;;;5066633;28;20375;-47
2023/07/28 09:51:57;;;;;;;15.38;10.38;;;22.00;99.90;;;;;;5068874;28;20066;-48
2023/07/28 09:54:27;;;;;;;12.02;8.88;;;22.10;99.90;;;;;;5067609;28;20053;-50
2023/07/28 09:56:59;;;;;;;11.73;8.85;;;21.90;99.90;;;;;;5068443;28;20040;-50
2023/07/28 09:59:39;;;;;;;11.70;8.85;;;22.10;99.90;;;;;;5066515;28;20492;-50
2023/07/28 10:02:05;;;;;;;12.63;7.93;;;22.30;99.90;;;;;;5072182;28;20041;-49
2023/07/28 10:04:32;;;;;;;14.60;8.60;;;22.30;99.90;;;;;;5068310;28;20098;-49
2023/07/28 10:06:59;;;;;;;14.20;8.68;;;22.40;99.90;;;;;;5069211;28;20430;-50
2023/07/28 10:09:26;;;;;;;12.45;8.38;;;22.20;99.90;;;;;;5066313;28;20048;-49
2023/07/28 10:11:53;;;;;;;13.07;8.10;;;22.00;99.90;;;;;;5068207;28;20060;-48
2023/07/28 10:14:34;;;;;;;15.57;8.60;;;22.10;99.90;;;;;;5065219;28;20095;-51
2023/07/28 10:17:01;;;;;;;11.63;8.60;;;22.10;99.90;;;;;;5066670;28;20420;-49
2023/07/28 10:19:28;;;;;;;12.50;7.93;;;22.20;99.90;;;;;;5066629;28;21376;-50
2023/07/28 10:22:01;;;;;;;12.90;7.28;;;22.40;99.90;;;;;;5071293;28;20046;-51
2023/07/28 10:24:56;;;;;;;10.70;7.50;;;22.30;99.90;;;;;;5073431;28;20077;-49
2023/07/28 10:27:33;;;;;;;13.20;8.43;;;22.20;99.90;;;;;;5075510;28;20041;-49
2023/07/28 10:30:01;;;;;;;15.85;8.40;;;22.20;99.90;;;;;;5074700;28;20055;-49
2023/07/28 10:32:36;;;;;;;15.20;9.40;;;22.20;99.90;;;;;;5072162;28;20049;-52
2023/07/28 10:35:07;;;;;;;13.98;8.60;;;22.00;99.90;;;;;;5066178;28;20041;-49
2023/07/28 10:37:33;;;;;;;15.98;9.50;;;22.00;99.90;;;;;;5071775;28;20098;-51
2023/07/28 10:40:38;;;;;;;12.55;8.10;;;22.00;99.90;;;;;;5063574;28;20037;-48
2023/07/28 10:43:05;;;;;;;10.48;7.22;;;21.90;99.90;;;;;;5011127;28;20113;-50
2023/07/28 10:45:32;;;;;;;10.77;6.57;;;21.90;99.90;;;;;;4995767;28;20133;-47
2023/07/28 10:48:03;;;;;;;10.88;6.60;;;22.00;99.90;;;;;;5042143;28;21309;-45
2023/07/28 10:50:32;;;;;;;8.68;6.20;;;22.10;99.90;;;;;;5072863;28;20094;-50
2023/07/28 10:52:58;;;;;;;10.52;5.70;;;22.10;99.90;;;;;;5074255;28;20052;-50
2023/07/28 10:55:26;;;;;;;10.60;5.78;;;22.10;99.90;;;;;;5073338;28;20055;-48
2023/07/28 10:57:53;;;;;;;10.60;5.85;;;22.10;99.90;;;;;;5073977;28;20499;-47
2023/07/28 11:00:21;;;;;;;10.90;5.70;;;22.20;99.90;;;;;;5073826;28;20075;-49
2023/07/28 11:02:49;;;;;;;12.43;6.15;;;22.10;99.90;;;;;;5072524;28;20054;-47
2023/07/28 11:05:27;;;;;;;9.85;6.15;;;22.30;99.90;;;;;;5073561;28;20059;-47
2023/07/28 11:07:55;;;;;;;10.27;5.93;;;22.60;99.90;;;;;;5088669;28;20093;-46
2023/07/28 11:10:21;;;;;;;10.35;5.63;;;22.60;99.90;;;;;;5083599;28;20102;-47
2023/07/28 11:12:49;;;;;;;8.50;5.50;;;22.90;99.90;;;;;;5090806;28;20039;-46
2023/07/28 11:15:16;;;;;;;10.80;5.25;;;23.10;99.90;;;;;;5094174;28;20383;-46
2023/07/28 11:17:49;;;;;;;9.45;5.70;;;23.30;99.90;;;;;;5081664;28;20106;-49
2023/07/28 11:20:26;;;;;;;9.20;5.13;;;23.40;99.90;;;;;;5077442;28;20044;-48
2023/07/28 11:22:53;;;;;;;8.27;4.78;;;23.50;99.90;;;;;;5093344;28;20039;-47
2023/07/28 11:25:18;;;;;;;7.63;4.45;;;23.60;99.90;;;;;;5093729;28;20071;-50
2023/07/28 11:27:46;;;;;;;7.57;4.40;;;23.80;99.90;;;;;;5093637;28;20086;-48
2023/07/28 11:30:12;;;;;;;7.57;3.92;;;24.00;99.90;;;;;;5093389;28;20048;-49
2023/07/28 11:32:38;;;;;;;8.05;4.63;;;24.10;99.90;;;;;;5085117;28;20036;-47
2023/07/28 11:35:09;;;;;;;7.32;4.53;;;24.00;99.90;;;;;;5092474;28;20039;-50
2023/07/28 11:37:35;;;;;;;7.57;3.90;;;24.10;99.90;;;;;;5087782;28;20072;-47
2023/07/28 11:40:06;;;;;;;6.65;4.50;;;24.00;99.90;;;;;;5090629;28;20055;-52
2023/07/28 11:42:39;;;;;;;9.27;4.30;;;23.90;99.90;;;;;;5085866;28;20479;-49
2023/07/28 11:45:06;;;;;;;8.25;3.78;;;23.80;99.90;;;;;;5073097;28;20040;-52
2023/07/28 11:47:32;;;;;;;9.23;3.50;;;24.10;99.90;;;;;;5093121;28;20046;-49
2023/07/28 11:49:58;;;;;;;14.65;4.50;;;24.10;99.90;;;;;;5083170;28;20593;-49
2023/07/28 11:52:29;;;;;;;7.80;3.42;;;24.20;99.90;;;;;;5073219;28;20453;-50
2023/07/28 11:54:54;;;;;;;7.43;3.35;;;24.20;99.90;;;;;;5079293;28;20467;-49
2023/07/28 11:57:21;;;;;;;5.88;3.25;;;24.00;99.90;;;;;;5075189;28;20075;-50
2023/07/28 11:59:48;;;;;;;5.22;3.30;;;23.80;99.90;;;;;;5072977;28;20492;-51
2023/07/28 12:02:13;;;;;;;6.55;3.10;;;23.80;99.90;;;;;;5091063;28;20075;-49
2023/07/28 12:04:40;;;;;;;5.72;2.70;;;23.70;99.90;;;;;;5058276;28;20080;-46
2023/07/28 12:07:19;;;;;;;6.82;3.33;;;23.70;99.90;;;;;;5092794;28;20040;-45
2023/07/28 12:09:59;;;;;;;6.32;2.97;;;23.80;99.90;;;;;;5092450;28;20085;-52
2023/07/28 12:12:28;;;;;;;8.88;3.10;;;24.10;99.90;;;;;;5091689;28;20487;-48
2023/07/28 12:14:55;;;;;;;5.53;3.05;;;24.40;99.90;;;;;;5093125;28;20032;-52
2023/07/28 12:17:23;;;;;;;5.10;3.10;;;24.60;99.90;;;;;;5092653;28;20044;-45
2023/07/28 12:20:10;;;;;;;5.10;2.70;;;24.90;99.90;;;;;;5078097;28;20036;-46
2023/07/28 12:22:39;;;;;;;5.63;3.00;;;25.20;99.90;;;;;;5072587;28;20047;-50
2023/07/28 12:25:05;;;;;;;5.65;2.63;;;25.40;99.90;;;;;;5078377;28;20129;-48
2023/07/28 12:27:31;;;;;;;5.03;2.92;;;25.30;99.90;;;;;;5072246;28;20112;-47
2023/07/28 12:29:57;;;;;;;5.55;3.20;;;25.10;99.90;;;;;;5089776;28;20151;-48
2023/07/28 12:32:23;;;;;;;4.97;2.80;;;24.90;99.90;;;;;;5087128;28;20036;-49